createdAt,value
2019-05-07T00:00:44.014Z,101293.98
2019-05-07T00:03:13.392Z,101292.67
2019-05-07T00:05:42.940Z,101295.69
2019-05-07T00:08:12.324Z,101293.12
2019-05-07T00:10:42.463Z,101287.06
2019-05-07T00:13:12.878Z,101287.50
2019-05-07T00:15:43.400Z,101286.20
2019-05-07T00:18:12.866Z,101281.88
2019-05-07T00:20:42.497Z,101277.98
2019-05-07T00:23:12.457Z,101278.00
2019-05-07T00:25:42.931Z,101273.69
2019-05-07T00:28:12.391Z,101275.42
2019-05-07T00:30:42.610Z,101274.98
2019-05-07T00:33:13.122Z,101276.73
2019-05-07T00:35:44.235Z,101270.64
2019-05-07T00:38:15.232Z,101278.45
2019-05-07T00:40:49.174Z,101271.10
2019-05-07T00:43:22.496Z,101267.20
2019-05-07T00:45:52.989Z,101273.25
2019-05-07T00:48:23.490Z,101272.81
2019-05-07T00:50:54.617Z,101271.10
2019-05-07T00:53:23.985Z,101271.97
2019-05-07T00:55:53.377Z,101266.73
2019-05-07T00:58:26.494Z,101274.12
2019-05-07T01:00:53.819Z,101268.91
2019-05-07T01:03:23.208Z,101268.92
2019-05-07T01:05:52.910Z,101269.78
2019-05-07T01:08:22.737Z,101265.44
2019-05-07T01:10:52.827Z,101262.42
2019-05-07T01:13:23.432Z,101265.03
2019-05-07T01:15:53.936Z,101264.58
2019-05-07T01:18:23.569Z,101258.52
2019-05-07T01:20:53.399Z,101264.16
2019-05-07T01:23:23.788Z,101260.23
2019-05-07T01:25:53.185Z,101259.83
2019-05-07T01:28:22.628Z,101260.67
2019-05-07T01:30:53.082Z,101263.28
2019-05-07T01:33:26.456Z,101259.36
2019-05-07T01:36:09.280Z,101259.33
2019-05-07T01:38:38.666Z,101260.64
2019-05-07T01:41:08.018Z,101267.55
2019-05-07T01:43:37.394Z,101263.66
2019-05-07T01:46:06.848Z,101266.65
2019-05-07T01:48:36.218Z,101260.16
2019-05-07T01:51:05.593Z,101264.50
2019-05-07T01:53:34.961Z,101260.59
2019-05-07T01:56:04.395Z,101264.06
2019-05-07T01:58:33.762Z,101258.86
2019-05-07T02:01:03.118Z,101256.67
2019-05-07T02:03:34.102Z,101259.27
2019-05-07T02:06:05.124Z,101261.44
2019-05-07T02:08:53.025Z,101261.02
2019-05-07T02:11:26.782Z,101261.88
2019-05-07T02:13:56.246Z,101260.97
2019-05-07T02:16:25.609Z,101255.78
2019-05-07T02:18:54.997Z,101257.91
2019-05-07T02:21:24.440Z,101260.05
2019-05-07T02:23:53.801Z,101258.77
2019-05-07T02:26:23.180Z,101257.05
2019-05-07T02:28:52.551Z,101262.70
2019-05-07T02:31:23.340Z,101256.20
2019-05-07T02:33:54.154Z,101247.95
2019-05-07T02:36:24.110Z,101249.25
2019-05-07T02:38:55.116Z,101253.59
2019-05-07T02:41:33.124Z,101251.38
2019-05-07T02:44:04.229Z,101247.05
2019-05-07T02:46:38.185Z,101250.08
2019-05-07T02:49:25.332Z,101250.92
2019-05-07T02:52:08.087Z,101248.77
2019-05-07T02:54:56.892Z,101255.27
2019-05-07T02:57:27.728Z,101256.56
2019-05-07T02:59:57.115Z,101253.97
2019-05-07T03:02:26.551Z,101250.91
2019-05-07T03:04:57.054Z,101249.58
2019-05-07T03:07:26.438Z,101248.28
2019-05-07T03:09:55.824Z,101252.13
2019-05-07T03:12:25.175Z,101246.06
2019-05-07T03:14:55.799Z,101242.55
2019-05-07T03:17:25.233Z,101248.56
2019-05-07T03:19:55.796Z,101240.28
2019-05-07T03:22:26.103Z,101242.36
2019-05-07T03:25:15.258Z,101242.72
2019-05-07T03:27:44.664Z,101244.38
2019-05-07T03:30:17.108Z,101241.23
2019-05-07T03:32:59.869Z,101245.48
2019-05-07T03:35:36.447Z,101237.65
2019-05-07T03:38:03.461Z,101238.86
2019-05-07T03:40:34.348Z,101237.53
2019-05-07T03:43:06.075Z,101234.02
2019-05-07T03:45:36.401Z,101242.22
2019-05-07T03:48:13.327Z,101239.59
2019-05-07T03:50:43.100Z,101241.34
2019-05-07T03:53:14.319Z,101237.88
2019-05-07T03:55:44.611Z,101243.08
2019-05-07T03:58:14.839Z,101240.06
2019-05-07T04:00:44.815Z,101242.22
2019-05-07T04:03:19.044Z,101242.22
2019-05-07T04:05:45.323Z,101238.35
2019-05-07T04:08:14.685Z,101234.05
2019-05-07T04:10:44.604Z,101241.84
2019-05-07T04:13:14.040Z,101236.62
2019-05-07T04:15:44.193Z,101237.50
2019-05-07T04:18:13.722Z,101234.44
2019-05-07T04:20:43.814Z,101237.88
2019-05-07T04:23:14.050Z,101234.41
2019-05-07T04:26:04.237Z,101233.90
2019-05-07T04:28:35.645Z,101233.42
2019-05-07T04:31:06.346Z,101239.44
2019-05-07T04:33:37.336Z,101231.62
2019-05-07T04:36:08.358Z,101226.44
2019-05-07T04:38:37.727Z,101234.66
2019-05-07T04:41:07.088Z,101234.69
2019-05-07T04:43:36.461Z,101233.45
2019-05-07T04:46:06.899Z,101232.63
2019-05-07T04:48:36.298Z,101224.02
2019-05-07T04:51:07.293Z,101225.34
2019-05-07T04:53:36.674Z,101226.70
2019-05-07T04:56:06.048Z,101228.47
2019-05-07T04:58:35.400Z,101225.08
2019-05-07T05:01:06.164Z,101223.42
2019-05-07T05:03:39.009Z,101217.42
2019-05-07T05:06:06.592Z,101222.28
2019-05-07T05:08:35.955Z,101221.53
2019-05-07T05:11:05.313Z,101222.51
2019-05-07T05:13:34.702Z,101222.13
2019-05-07T05:16:05.887Z,101219.16
2019-05-07T05:18:35.277Z,101222.71
2019-05-07T05:21:06.337Z,101217.58
2019-05-07T05:23:46.414Z,101222.84
2019-05-07T05:26:15.775Z,101215.98
2019-05-07T05:28:45.132Z,101217.33
2019-05-07T05:31:14.509Z,101213.92
2019-05-07T05:33:43.882Z,101215.32
2019-05-07T05:36:13.316Z,101222.33
2019-05-07T05:38:42.659Z,101224.58
2019-05-07T05:41:12.443Z,101227.22
2019-05-07T05:43:43.497Z,101217.70
2019-05-07T05:46:14.514Z,101219.05
2019-05-07T05:48:43.887Z,101229.95
2019-05-07T05:51:32.371Z,101226.91
2019-05-07T05:54:03.591Z,101225.19
2019-05-07T05:56:34.594Z,101223.92
2019-05-07T05:59:08.208Z,101221.84
2019-05-07T06:01:52.096Z,101222.72
2019-05-07T06:04:23.133Z,101211.92
2019-05-07T06:07:11.198Z,101215.81
2019-05-07T06:09:42.261Z,101214.13
2019-05-07T06:12:19.302Z,101218.94
2019-05-07T06:14:56.303Z,101215.03
2019-05-07T06:17:33.280Z,101216.39
2019-05-07T06:20:22.440Z,101211.16
2019-05-07T06:23:09.185Z,101218.97
2019-05-07T06:25:39.201Z,101214.13
2019-05-07T06:28:08.564Z,101215.37
2019-05-07T06:30:37.950Z,101217.86
2019-05-07T06:33:07.400Z,101212.02
2019-05-07T06:35:36.753Z,101213.95
2019-05-07T06:38:07.913Z,101208.05
2019-05-07T06:40:51.927Z,101197.81
2019-05-07T06:43:34.989Z,101209.92
2019-05-07T06:46:05.486Z,101210.41
2019-05-07T06:48:42.294Z,101210.41
2019-05-07T06:51:05.936Z,101204.03
2019-05-07T06:53:35.334Z,101194.80
2019-05-07T06:56:04.825Z,101203.34
2019-05-07T06:58:41.999Z,101200.50
2019-05-07T07:01:13.269Z,101206.70
2019-05-07T07:03:59.362Z,101204.13
2019-05-07T07:06:39.513Z,101207.75
2019-05-07T07:09:28.320Z,101201.94
2019-05-07T07:12:02.259Z,101206.64
2019-05-07T07:14:33.194Z,101199.70
2019-05-07T07:17:03.605Z,101198.08
2019-05-07T07:19:35.880Z,101199.97
2019-05-07T07:22:04.412Z,101189.94
2019-05-07T07:24:33.777Z,101193.88
2019-05-07T07:27:03.176Z,101182.80
2019-05-07T07:29:35.141Z,101180.85
2019-05-07T07:32:06.217Z,101180.99
2019-05-07T07:34:37.228Z,101184.85
2019-05-07T07:37:10.939Z,101190.47
2019-05-07T07:39:39.338Z,101185.18
2019-05-07T07:42:09.484Z,101187.52
2019-05-07T07:44:38.857Z,101186.23
2019-05-07T07:47:08.233Z,101189.39
2019-05-07T07:49:37.632Z,101185.45
2019-05-07T07:52:07.014Z,101176.17
2019-05-07T07:54:36.363Z,101182.09
2019-05-07T07:57:12.475Z,101181.27
2019-05-07T07:59:48.656Z,101176.61
2019-05-07T08:02:19.688Z,101186.85
2019-05-07T08:04:49.066Z,101173.41
2019-05-07T08:07:18.440Z,101170.44
2019-05-07T08:09:47.824Z,101166.92
2019-05-07T08:12:17.177Z,101164.81
2019-05-07T08:14:46.539Z,101166.51
2019-05-07T08:17:15.922Z,101161.33
2019-05-07T08:19:45.285Z,101164.31
2019-05-07T08:22:14.639Z,101161.71
2019-05-07T08:24:43.994Z,101161.71
2019-05-07T08:27:15.322Z,101158.16
2019-05-07T08:29:44.410Z,101149.69
2019-05-07T08:32:18.065Z,101149.47
2019-05-07T08:34:52.222Z,101152.39
2019-05-07T08:37:24.292Z,101148.90
2019-05-07T08:39:52.657Z,101149.50
2019-05-07T08:42:22.809Z,101145.11
2019-05-07T08:45:00.048Z,101143.08
2019-05-07T08:47:31.907Z,101140.36
2019-05-07T08:50:02.904Z,101142.91
2019-05-07T08:52:32.759Z,101141.83
2019-05-07T08:55:02.320Z,101144.38
2019-05-07T08:57:32.638Z,101145.28
2019-05-07T09:00:04.614Z,101132.92
2019-05-07T09:02:33.070Z,101139.43
2019-05-07T09:05:02.937Z,101131.73
2019-05-07T09:07:33.465Z,101132.87
2019-05-07T09:10:02.911Z,101141.37
2019-05-07T09:12:32.273Z,101130.77
2019-05-07T09:15:02.329Z,101121.37
2019-05-07T09:17:31.928Z,101125.94
2019-05-07T09:20:02.648Z,101127.73
2019-05-07T09:22:32.483Z,101127.40
2019-05-07T09:25:03.056Z,101123.92
2019-05-07T09:27:34.320Z,101132.94
2019-05-07T09:30:09.252Z,101129.83
2019-05-07T09:32:52.453Z,101126.30
2019-05-07T09:35:29.514Z,101126.56
2019-05-07T09:37:58.904Z,101120.07
2019-05-07T09:40:28.301Z,101117.18
2019-05-07T09:42:57.778Z,101120.18
2019-05-07T09:45:28.119Z,101117.22
2019-05-07T09:47:57.564Z,101110.39
2019-05-07T09:50:26.943Z,101110.74
2019-05-07T09:52:56.304Z,101111.81
2019-05-07T09:55:25.798Z,101111.41
2019-05-07T09:57:55.157Z,101108.80
2019-05-07T10:00:25.165Z,101110.08
2019-05-07T10:02:56.691Z,101105.28
2019-05-07T10:05:25.735Z,101105.38
2019-05-07T10:07:55.092Z,101104.44
2019-05-07T10:10:24.478Z,101100.49
2019-05-07T10:13:01.950Z,101099.19
2019-05-07T10:15:33.126Z,101096.98
2019-05-07T10:18:15.941Z,101096.89
2019-05-07T10:20:45.846Z,101093.55
2019-05-07T10:23:22.782Z,101094.08
2019-05-07T10:25:53.241Z,101093.59
2019-05-07T10:28:23.039Z,101091.98
2019-05-07T10:30:52.749Z,101088.83
2019-05-07T10:33:22.906Z,101083.84
2019-05-07T10:35:52.931Z,101084.09
2019-05-07T10:38:23.356Z,101082.52
2019-05-07T10:40:52.761Z,101083.89
2019-05-07T10:43:23.154Z,101073.86
2019-05-07T10:45:59.850Z,101072.53
2019-05-07T10:48:32.026Z,101076.95
2019-05-07T10:51:02.697Z,101066.29
2019-05-07T10:53:32.200Z,101070.84
2019-05-07T10:56:02.714Z,101067.25
2019-05-07T10:58:32.249Z,101060.72
2019-05-07T11:01:02.850Z,101058.89
2019-05-07T11:03:32.633Z,101063.80
2019-05-07T11:06:02.013Z,101059.86
2019-05-07T11:08:32.901Z,101062.09
2019-05-07T11:11:02.916Z,101057.98
2019-05-07T11:13:32.450Z,101054.45
2019-05-07T11:16:11.633Z,101052.26
2019-05-07T11:18:42.643Z,101054.59
2019-05-07T11:21:12.084Z,101050.39
2019-05-07T11:23:41.887Z,101050.48
2019-05-07T11:26:11.751Z,101034.36
2019-05-07T11:28:41.254Z,101038.52
2019-05-07T11:31:12.387Z,101035.70
2019-05-07T11:33:41.855Z,101029.45
2019-05-07T11:36:11.240Z,101027.07
2019-05-07T11:38:41.816Z,101029.09
2019-05-07T11:41:12.779Z,101020.20
2019-05-07T11:43:46.804Z,101018.08
2019-05-07T11:46:23.809Z,101019.70
2019-05-07T11:49:06.368Z,101007.05
2019-05-07T11:51:37.422Z,101012.56
2019-05-07T11:54:12.653Z,101006.33
2019-05-07T11:56:42.913Z,101001.40
2019-05-07T11:59:13.370Z,100996.45
2019-05-07T12:01:47.801Z,100996.72
2019-05-07T12:04:15.802Z,100998.16
2019-05-07T12:06:45.182Z,100985.92
2019-05-07T12:09:14.554Z,100979.95
2019-05-07T12:11:43.918Z,100981.67
2019-05-07T12:14:13.270Z,100979.03
2019-05-07T12:16:42.835Z,100977.27
2019-05-07T12:19:13.728Z,100970.63
2019-05-07T12:21:43.304Z,100965.83
2019-05-07T12:24:16.146Z,100963.88
2019-05-07T12:26:44.205Z,100969.00
2019-05-07T12:29:13.627Z,100960.83
2019-05-07T12:31:47.744Z,100953.73
2019-05-07T12:34:18.743Z,100954.14
2019-05-07T12:36:48.102Z,100958.66
2019-05-07T12:39:17.502Z,100958.52
2019-05-07T12:41:46.879Z,100950.88
2019-05-07T12:44:16.250Z,100946.94
2019-05-07T12:46:45.608Z,100951.17
2019-05-07T12:49:14.958Z,100948.54
2019-05-07T12:51:48.850Z,100950.11
2019-05-07T12:54:19.866Z,100947.97
2019-05-07T12:56:49.222Z,100947.80
2019-05-07T12:59:18.609Z,100942.02
2019-05-07T13:01:52.567Z,100944.26
2019-05-07T13:04:23.574Z,100940.30
2019-05-07T13:06:57.363Z,100936.23
2019-05-07T13:09:26.739Z,100934.30
2019-05-07T13:11:56.165Z,100942.28
2019-05-07T13:14:25.590Z,100943.78
2019-05-07T13:16:54.947Z,100935.92
2019-05-07T13:19:24.361Z,100936.49
2019-05-07T13:21:53.717Z,100929.59
2019-05-07T13:24:23.083Z,100933.98
2019-05-07T13:26:52.441Z,100926.70
2019-05-07T13:29:22.270Z,100931.23
2019-05-07T13:31:54.650Z,100930.50
2019-05-07T13:34:24.275Z,100921.69
2019-05-07T13:37:04.635Z,100921.55
2019-05-07T13:39:35.871Z,100914.28
2019-05-07T13:42:12.925Z,100909.45
2019-05-07T13:44:43.927Z,100906.80
2019-05-07T13:47:17.510Z,100903.22
2019-05-07T13:49:47.935Z,100888.64
2019-05-07T13:52:17.348Z,100890.87
2019-05-07T13:54:46.837Z,100888.57
2019-05-07T13:57:16.188Z,100887.84
2019-05-07T13:59:45.947Z,100884.09
2019-05-07T14:02:17.024Z,100880.48
2019-05-07T14:04:46.470Z,100875.97
2019-05-07T14:07:16.361Z,100878.35
2019-05-07T14:09:45.749Z,100871.97
2019-05-07T14:12:15.103Z,100872.82
2019-05-07T14:14:44.450Z,100865.53
2019-05-07T14:17:13.827Z,100862.12
2019-05-07T14:19:43.196Z,100862.12
2019-05-07T14:22:18.020Z,100863.70
2019-05-07T14:24:43.651Z,100866.59
2019-05-07T14:27:13.007Z,100857.92
2019-05-07T14:29:42.541Z,100857.19
2019-05-07T14:32:13.556Z,100850.52
2019-05-07T14:35:02.100Z,100849.35
2019-05-07T14:37:33.239Z,100848.09
2019-05-07T14:40:02.848Z,100849.70
2019-05-07T14:42:49.739Z,100846.30
2019-05-07T14:45:19.257Z,100837.56
2019-05-07T14:47:48.614Z,100845.84
2019-05-07T14:50:18.226Z,100840.70
2019-05-07T14:52:47.642Z,100836.18
2019-05-07T14:55:17.156Z,100830.37
2019-05-07T14:57:46.581Z,100830.91
2019-05-07T15:00:16.547Z,100830.03
2019-05-07T15:02:46.168Z,100825.69
2019-05-07T15:05:15.995Z,100824.63
2019-05-07T15:07:45.347Z,100818.93
2019-05-07T15:10:14.961Z,100809.04
2019-05-07T15:12:44.398Z,100813.94
2019-05-07T15:15:14.119Z,100810.16
2019-05-07T15:17:45.695Z,100805.77
2019-05-07T15:20:16.014Z,100811.13
2019-05-07T15:22:55.745Z,100801.55
2019-05-07T15:25:25.101Z,100800.66
2019-05-07T15:27:54.474Z,100794.69
2019-05-07T15:30:25.484Z,100799.95
2019-05-07T15:32:54.834Z,100789.39
2019-05-07T15:35:24.259Z,100789.93
2019-05-07T15:37:53.772Z,100792.46
2019-05-07T15:40:23.115Z,100784.30
2019-05-07T15:42:53.463Z,100779.09
2019-05-07T15:45:23.540Z,100778.47
2019-05-07T15:47:54.549Z,100775.63
2019-05-07T15:50:25.525Z,100775.27
2019-05-07T15:52:58.655Z,100770.49
2019-05-07T15:55:27.569Z,100768.98
2019-05-07T15:57:57.567Z,100762.31
2019-05-07T16:00:29.288Z,100755.22
2019-05-07T16:03:02.058Z,100758.75
2019-05-07T16:05:31.941Z,100754.84
2019-05-07T16:08:01.769Z,100750.52
2019-05-07T16:10:32.518Z,100752.85
2019-05-07T16:13:01.867Z,100752.63
2019-05-07T16:15:32.025Z,100750.52
2019-05-07T16:18:03.138Z,100751.95
2019-05-07T16:20:32.714Z,100751.27
2019-05-07T16:23:14.014Z,100746.59
2019-05-07T16:25:33.675Z,100737.92
2019-05-07T16:28:04.938Z,100739.27
2019-05-07T16:30:34.105Z,100737.22
2019-05-07T16:33:03.560Z,100740.48
2019-05-07T16:35:32.933Z,100731.89
2019-05-07T16:38:02.279Z,100735.09
2019-05-07T16:40:32.350Z,100736.51
2019-05-07T16:43:02.753Z,100723.08
2019-05-07T16:45:32.925Z,100720.59
2019-05-07T16:48:03.187Z,100724.61
2019-05-07T16:50:33.618Z,100723.76
2019-05-07T16:53:03.043Z,100721.13
2019-05-07T16:55:37.009Z,100715.39
2019-05-07T16:58:14.058Z,100707.45
2019-05-07T17:00:53.934Z,100714.38
2019-05-07T17:03:27.579Z,100712.96
2019-05-07T17:05:56.952Z,100711.05
2019-05-07T17:08:33.417Z,100713.09
2019-05-07T17:11:03.151Z,100711.34
2019-05-07T17:13:33.478Z,100709.73
2019-05-07T17:16:03.456Z,100705.50
2019-05-07T17:18:32.988Z,100707.35
2019-05-07T17:21:02.368Z,100708.03
2019-05-07T17:23:43.774Z,100706.93
2019-05-07T17:26:04.925Z,100699.24
2019-05-07T17:28:34.423Z,100704.06
2019-05-07T17:31:03.807Z,100702.41
2019-05-07T17:33:33.171Z,100698.92
2019-05-07T17:36:02.630Z,100694.97
2019-05-07T17:38:33.038Z,100700.12
2019-05-07T17:41:10.865Z,100699.47
2019-05-07T17:43:33.481Z,100694.61
2019-05-07T17:46:02.990Z,100700.73
2019-05-07T17:48:33.103Z,100699.05
2019-05-07T17:51:06.899Z,100690.94
2019-05-07T17:53:36.430Z,100692.36
2019-05-07T17:56:05.853Z,100693.91
2019-05-07T17:58:35.228Z,100686.27
2019-05-07T18:01:05.248Z,100692.20
2019-05-07T18:03:36.255Z,100686.78
2019-05-07T18:06:06.327Z,100690.89
2019-05-07T18:08:35.751Z,100689.25
2019-05-07T18:11:17.317Z,100696.30
2019-05-07T18:13:36.395Z,100686.24
2019-05-07T18:16:12.001Z,100677.97
2019-05-07T18:18:43.059Z,100681.97
2019-05-07T18:21:12.680Z,100680.77
2019-05-07T18:23:42.016Z,100676.98
2019-05-07T18:26:16.410Z,100679.28
2019-05-07T18:28:42.461Z,100675.51
2019-05-07T18:31:12.566Z,100681.77
2019-05-07T18:33:52.224Z,100675.02
2019-05-07T18:36:22.717Z,100672.14
2019-05-07T18:38:52.837Z,100668.81
2019-05-07T18:41:22.499Z,100676.79
2019-05-07T18:43:54.471Z,100669.97
2019-05-07T18:46:22.886Z,100668.80
2019-05-07T18:48:52.262Z,100665.02
2019-05-07T18:51:21.614Z,100661.29
2019-05-07T18:53:51.962Z,100657.12
2019-05-07T18:56:22.105Z,100654.27
2019-05-07T18:58:52.135Z,100660.11
2019-05-07T19:01:23.124Z,100661.14
2019-05-07T19:03:52.944Z,100660.02
2019-05-07T19:06:22.438Z,100662.38
2019-05-07T19:08:52.684Z,100658.21
2019-05-07T19:11:22.794Z,100662.25
2019-05-07T19:13:53.563Z,100655.41
2019-05-07T19:16:23.446Z,100656.83
2019-05-07T19:18:52.808Z,100657.39
2019-05-07T19:21:22.489Z,100657.61
2019-05-07T19:23:52.947Z,100661.66
2019-05-07T19:26:22.487Z,100661.66
2019-05-07T19:28:51.885Z,100664.36
2019-05-07T19:31:22.000Z,100664.91
2019-05-07T19:33:52.534Z,100661.91
2019-05-07T19:36:22.429Z,100669.36
2019-05-07T19:38:52.605Z,100663.38
2019-05-07T19:41:22.031Z,100653.44
2019-05-07T19:43:52.748Z,100655.66
2019-05-07T19:46:22.864Z,100660.06
2019-05-07T19:48:52.311Z,100665.34
2019-05-07T19:51:21.663Z,100668.91
2019-05-07T19:53:52.584Z,100672.84
2019-05-07T19:56:23.622Z,100673.33
2019-05-07T19:58:53.142Z,100667.27
2019-05-07T20:01:24.289Z,100666.84
2019-05-07T20:03:53.667Z,100665.11
2019-05-07T20:06:23.542Z,100666.41
2019-05-07T20:08:53.132Z,100667.30
2019-05-07T20:11:33.038Z,100667.75
2019-05-07T20:14:02.466Z,100657.35
2019-05-07T20:16:32.906Z,100665.62
2019-05-07T20:19:02.540Z,100660.86
2019-05-07T20:21:32.684Z,100656.53
2019-05-07T20:24:02.125Z,100648.72
2019-05-07T20:26:32.299Z,100639.14
2019-05-07T20:29:03.026Z,100633.05
2019-05-07T20:31:33.567Z,100629.17
2019-05-07T20:34:03.169Z,100627.87
2019-05-07T20:36:32.904Z,100620.95
2019-05-07T20:39:02.477Z,100609.30
2019-05-07T20:41:33.444Z,100606.72
2019-05-07T20:44:03.098Z,100599.37
2019-05-07T20:46:33.168Z,100602.05
2019-05-07T20:49:03.097Z,100596.42
2019-05-07T20:51:32.750Z,100588.63
2019-05-07T20:54:03.767Z,100588.68
2019-05-07T20:56:34.791Z,100588.30
2019-05-07T20:59:04.133Z,100592.67
2019-05-07T21:01:34.478Z,100587.09
2019-05-07T21:04:03.851Z,100584.08
2019-05-07T21:06:33.221Z,100578.88
2019-05-07T21:09:02.573Z,100581.95
2019-05-07T21:11:33.609Z,100580.23
2019-05-07T21:14:03.373Z,100585.42
2019-05-07T21:16:33.824Z,100579.82
2019-05-07T21:19:03.207Z,100579.38
2019-05-07T21:21:32.850Z,100580.28
2019-05-07T21:24:02.336Z,100575.94
2019-05-07T21:26:32.758Z,100580.28
2019-05-07T21:29:03.080Z,100565.15
2019-05-07T21:31:32.609Z,100565.14
2019-05-07T21:34:03.152Z,100555.63
2019-05-07T21:36:32.632Z,100550.39
2019-05-07T21:39:02.453Z,100549.08
2019-05-07T21:41:33.649Z,100548.20
2019-05-07T21:44:03.041Z,100545.61
2019-05-07T21:46:33.026Z,100549.52
2019-05-07T21:49:03.397Z,100546.93
2019-05-07T21:51:32.748Z,100542.59
2019-05-07T21:54:09.387Z,100549.52
2019-05-07T21:56:46.071Z,100539.55
2019-05-07T21:59:17.074Z,100538.67
2019-05-07T22:01:48.080Z,100532.11
2019-05-07T22:04:17.454Z,100521.22
2019-05-07T22:06:46.793Z,100510.73
2019-05-07T22:09:16.500Z,100510.27
2019-05-07T22:11:46.032Z,100513.25
2019-05-07T22:14:15.508Z,100509.29
2019-05-07T22:16:44.862Z,100500.11
2019-05-07T22:19:14.208Z,100502.23
2019-05-07T22:21:43.559Z,100497.42
2019-05-07T22:24:15.096Z,100499.92
2019-05-07T22:26:43.999Z,100498.16
2019-05-07T22:29:14.340Z,100491.58
2019-05-07T22:31:48.084Z,100481.12
2019-05-07T22:34:34.175Z,100476.29
2019-05-07T22:37:04.000Z,100477.09
2019-05-07T22:39:43.960Z,100480.54
2019-05-07T22:42:17.962Z,100466.17
2019-05-07T22:44:47.352Z,100459.61
2019-05-07T22:47:22.193Z,100460.02
2019-05-07T22:49:53.733Z,100462.58
2019-05-07T22:52:22.532Z,100450.36
2019-05-07T22:54:51.933Z,100451.23
2019-05-07T22:57:25.633Z,100443.78
2019-05-07T22:59:54.989Z,100437.68
2019-05-07T23:02:24.382Z,100437.64
2019-05-07T23:04:53.748Z,100427.17
2019-05-07T23:07:23.077Z,100424.09
2019-05-07T23:09:52.440Z,100424.50
2019-05-07T23:12:22.056Z,100421.89
2019-05-07T23:14:53.667Z,100413.61
2019-05-07T23:17:22.549Z,100408.39
2019-05-07T23:19:54.871Z,100404.44
2019-05-07T23:22:22.964Z,100401.40
2019-05-07T23:24:52.319Z,100396.17
2019-05-07T23:27:22.429Z,100386.16
2019-05-07T23:29:52.969Z,100385.23
2019-05-07T23:32:22.403Z,100380.90
2019-05-07T23:34:52.735Z,100381.73
2019-05-07T23:37:22.588Z,100373.44
2019-05-07T23:39:53.663Z,100368.64
2019-05-07T23:42:24.636Z,100362.11
2019-05-07T23:44:53.977Z,100361.23
2019-05-07T23:47:24.300Z,100357.77
2019-05-07T23:49:53.661Z,100357.25
2019-05-07T23:52:23.002Z,100357.67
2019-05-07T23:54:52.366Z,100347.23
2019-05-07T23:57:23.186Z,100352.86
2019-05-07T23:59:53.066Z,100343.73
